CheckWX is a tool to help pilots better visualize weather data.  It is not intended as a substitute for an official pre-flight weather briefing.

06:54:57 UTC

KHZX METAR
Isedor Iverson Airport
Mc Gregor, Minnesota, USA
Current

20 mins ago

KHZX 210635Z AUTO 00000KT 10SM CLR 04/02 A3014 RMK AO2
Observed
May-21 @ 06:35 UTC
Visibility
10 SM
Flight Rules
VFR
Cloud Levels
  • Clear skies
Temperature
C / 39°F
Dewpoint
C / 36°F
Humidity
87%
Altimeter
30.14" Hg
Pressure
1020.62 hPa
Previous

40 mins ago

KHZX 210615Z AUTO 00000KT 10SM CLR 05/03 A3013 RMK AO2
Observed
May-21 @ 06:15 UTC
Visibility
10 SM
Flight Rules
VFR
Cloud Levels
  • Clear skies
Temperature
C / 41°F
Dewpoint
C / 37°F
Humidity
87%
Altimeter
30.13" Hg
Pressure
1020.32 hPa
Previous

59 mins ago

KHZX 210556Z AUTO 00000KT 10SM CLR 05/02 A3013 RMK AO2
Observed
May-21 @ 05:56 UTC
Visibility
10 SM
Flight Rules
VFR
Cloud Levels
  • Clear skies
Temperature
C / 41°F
Dewpoint
C / 36°F
Humidity
81%
Altimeter
30.13" Hg
Pressure
1020.32 hPa